sensor_id;sensor_type;location;lat;lon;timestamp;P1;durP1;ratioP1;P2;durP2;ratioP2
36379;SDS011;22411;53.016;18.632;2023-10-31T00:01:35;19.02;;;11.55;;
36379;SDS011;22411;53.016;18.632;2023-10-31T00:04:00;15.18;;;10.10;;
36379;SDS011;22411;53.016;18.632;2023-10-31T00:06:26;17.77;;;11.77;;
36379;SDS011;22411;53.016;18.632;2023-10-31T00:08:52;16.10;;;10.80;;
36379;SDS011;22411;53.016;18.632;2023-10-31T00:11:17;18.92;;;11.88;;
36379;SDS011;22411;53.016;18.632;2023-10-31T00:13:43;18.20;;;11.60;;
36379;SDS011;22411;53.016;18.632;2023-10-31T00:16:09;14.65;;;11.18;;
36379;SDS011;22411;53.016;18.632;2023-10-31T00:18:35;16.42;;;10.80;;
36379;SDS011;22411;53.016;18.632;2023-10-31T00:21:00;17.88;;;10.38;;
36379;SDS011;22411;53.016;18.632;2023-10-31T00:23:26;14.85;;;11.45;;
36379;SDS011;22411;53.016;18.632;2023-10-31T00:25:51;17.10;;;11.65;;
36379;SDS011;22411;53.016;18.632;2023-10-31T00:28:17;21.30;;;11.25;;
36379;SDS011;22411;53.016;18.632;2023-10-31T00:30:43;17.60;;;11.10;;
36379;SDS011;22411;53.016;18.632;2023-10-31T00:33:09;20.13;;;11.13;;
36379;SDS011;22411;53.016;18.632;2023-10-31T00:35:34;15.93;;;10.70;;
36379;SDS011;22411;53.016;18.632;2023-10-31T00:38:00;17.02;;;11.50;;
36379;SDS011;22411;53.016;18.632;2023-10-31T00:40:25;18.00;;;11.68;;
36379;SDS011;22411;53.016;18.632;2023-10-31T00:42:51;18.17;;;10.82;;
36379;SDS011;22411;53.016;18.632;2023-10-31T00:45:17;22.17;;;12.18;;
36379;SDS011;22411;53.016;18.632;2023-10-31T00:47:43;18.48;;;10.90;;
36379;SDS011;22411;53.016;18.632;2023-10-31T00:50:08;24.77;;;12.52;;
36379;SDS011;22411;53.016;18.632;2023-10-31T00:52:35;17.23;;;10.70;;
36379;SDS011;22411;53.016;18.632;2023-10-31T00:55:00;16.27;;;10.20;;
36379;SDS011;22411;53.016;18.632;2023-10-31T00:57:26;19.00;;;10.82;;
36379;SDS011;22411;53.016;18.632;2023-10-31T00:59:52;18.77;;;11.18;;
36379;SDS011;22411;53.016;18.632;2023-10-31T01:02:18;15.15;;;9.63;;
36379;SDS011;22411;53.016;18.632;2023-10-31T01:04:43;13.52;;;10.13;;
36379;SDS011;22411;53.016;18.632;2023-10-31T01:07:09;16.00;;;9.55;;
36379;SDS011;22411;53.016;18.632;2023-10-31T01:09:38;15.60;;;10.57;;
36379;SDS011;22411;53.016;18.632;2023-10-31T01:12:04;18.23;;;8.60;;
36379;SDS011;22411;53.016;18.632;2023-10-31T01:14:30;14.50;;;9.90;;
36379;SDS011;22411;53.016;18.632;2023-10-31T01:16:56;12.10;;;8.50;;
36379;SDS011;22411;53.016;18.632;2023-10-31T01:19:22;10.52;;;8.45;;
36379;SDS011;22411;53.016;18.632;2023-10-31T01:21:47;13.80;;;9.10;;
36379;SDS011;22411;53.016;18.632;2023-10-31T01:24:13;18.90;;;10.68;;
36379;SDS011;22411;53.016;18.632;2023-10-31T01:26:39;14.70;;;8.45;;
36379;SDS011;22411;53.016;18.632;2023-10-31T01:29:05;18.20;;;9.10;;
36379;SDS011;22411;53.016;18.632;2023-10-31T01:31:30;13.07;;;8.18;;
36379;SDS011;22411;53.016;18.632;2023-10-31T01:33:57;13.77;;;9.32;;
36379;SDS011;22411;53.016;18.632;2023-10-31T01:36:24;14.50;;;9.57;;
36379;SDS011;22411;53.016;18.632;2023-10-31T01:38:51;14.20;;;8.63;;
36379;SDS011;22411;53.016;18.632;2023-10-31T01:41:17;11.32;;;8.05;;
36379;SDS011;22411;53.016;18.632;2023-10-31T01:43:43;12.93;;;8.07;;
36379;SDS011;22411;53.016;18.632;2023-10-31T01:46:09;10.98;;;7.53;;
36379;SDS011;22411;53.016;18.632;2023-10-31T01:48:34;10.00;;;7.30;;
36379;SDS011;22411;53.016;18.632;2023-10-31T01:51:02;12.38;;;8.27;;
36379;SDS011;22411;53.016;18.632;2023-10-31T01:53:29;12.80;;;7.93;;
36379;SDS011;22411;53.016;18.632;2023-10-31T01:55:58;12.27;;;7.53;;
36379;SDS011;22411;53.016;18.632;2023-10-31T01:58:33;10.93;;;7.63;;
36379;SDS011;22411;53.016;18.632;2023-10-31T02:01:00;11.05;;;7.35;;
36379;SDS011;22411;53.016;18.632;2023-10-31T02:03:27;11.13;;;8.27;;
36379;SDS011;22411;53.016;18.632;2023-10-31T02:05:53;13.32;;;7.85;;
36379;SDS011;22411;53.016;18.632;2023-10-31T02:08:20;13.98;;;7.53;;
36379;SDS011;22411;53.016;18.632;2023-10-31T02:10:46;9.80;;;5.97;;
36379;SDS011;22411;53.016;18.632;2023-10-31T02:13:15;11.95;;;6.65;;
36379;SDS011;22411;53.016;18.632;2023-10-31T02:15:43;9.73;;;5.22;;
36379;SDS011;22411;53.016;18.632;2023-10-31T02:18:10;9.13;;;5.88;;
36379;SDS011;22411;53.016;18.632;2023-10-31T02:20:36;9.85;;;5.13;;
36379;SDS011;22411;53.016;18.632;2023-10-31T02:23:02;9.93;;;5.95;;
36379;SDS011;22411;53.016;18.632;2023-10-31T02:25:28;12.40;;;6.00;;
36379;SDS011;22411;53.016;18.632;2023-10-31T02:27:54;13.18;;;6.50;;
36379;SDS011;22411;53.016;18.632;2023-10-31T02:30:20;7.70;;;4.70;;
36379;SDS011;22411;53.016;18.632;2023-10-31T02:32:46;7.00;;;5.45;;
36379;SDS011;22411;53.016;18.632;2023-10-31T02:35:12;8.05;;;4.97;;
36379;SDS011;22411;53.016;18.632;2023-10-31T02:37:39;12.73;;;6.50;;
36379;SDS011;22411;53.016;18.632;2023-10-31T02:40:05;14.32;;;5.32;;
36379;SDS011;22411;53.016;18.632;2023-10-31T02:42:31;14.75;;;6.47;;
36379;SDS011;22411;53.016;18.632;2023-10-31T02:44:57;9.63;;;5.22;;
36379;SDS011;22411;53.016;18.632;2023-10-31T02:47:23;8.63;;;5.28;;
36379;SDS011;22411;53.016;18.632;2023-10-31T02:49:48;12.15;;;5.78;;
36379;SDS011;22411;53.016;18.632;2023-10-31T02:52:14;10.77;;;5.47;;
36379;SDS011;22411;53.016;18.632;2023-10-31T02:54:40;7.85;;;5.38;;
36379;SDS011;22411;53.016;18.632;2023-10-31T02:57:06;8.50;;;4.82;;
36379;SDS011;22411;53.016;18.632;2023-10-31T02:59:31;11.60;;;5.03;;
36379;SDS011;22411;53.016;18.632;2023-10-31T03:01:57;9.25;;;5.28;;
36379;SDS011;22411;53.016;18.632;2023-10-31T03:04:23;12.48;;;5.10;;
36379;SDS011;22411;53.016;18.632;2023-10-31T03:06:49;15.38;;;6.35;;
36379;SDS011;22411;53.016;18.632;2023-10-31T03:09:14;9.70;;;5.07;;
36379;SDS011;22411;53.016;18.632;2023-10-31T03:11:40;9.07;;;5.25;;
36379;SDS011;22411;53.016;18.632;2023-10-31T03:14:06;9.90;;;6.35;;
36379;SDS011;22411;53.016;18.632;2023-10-31T03:16:32;10.15;;;4.80;;
36379;SDS011;22411;53.016;18.632;2023-10-31T03:19:00;10.43;;;4.85;;
36379;SDS011;22411;53.016;18.632;2023-10-31T03:21:26;11.18;;;5.43;;
36379;SDS011;22411;53.016;18.632;2023-10-31T03:23:52;12.35;;;5.28;;
36379;SDS011;22411;53.016;18.632;2023-10-31T03:26:23;8.40;;;4.50;;
36379;SDS011;22411;53.016;18.632;2023-10-31T03:28:49;11.48;;;4.82;;
36379;SDS011;22411;53.016;18.632;2023-10-31T03:31:15;7.97;;;4.43;;
36379;SDS011;22411;53.016;18.632;2023-10-31T03:33:41;9.13;;;4.60;;
36379;SDS011;22411;53.016;18.632;2023-10-31T03:36:08;10.43;;;5.38;;
36379;SDS011;22411;53.016;18.632;2023-10-31T03:38:34;8.57;;;4.75;;
36379;SDS011;22411;53.016;18.632;2023-10-31T03:41:01;6.55;;;4.15;;
36379;SDS011;22411;53.016;18.632;2023-10-31T03:43:27;7.30;;;4.90;;
36379;SDS011;22411;53.016;18.632;2023-10-31T03:45:53;7.55;;;4.45;;
36379;SDS011;22411;53.016;18.632;2023-10-31T03:48:20;7.60;;;5.75;;
36379;SDS011;22411;53.016;18.632;2023-10-31T03:50:46;8.45;;;4.45;;
36379;SDS011;22411;53.016;18.632;2023-10-31T03:53:11;6.20;;;4.43;;
36379;SDS011;22411;53.016;18.632;2023-10-31T03:55:37;7.65;;;4.63;;
36379;SDS011;22411;53.016;18.632;2023-10-31T03:58:03;8.13;;;4.78;;
36379;SDS011;22411;53.016;18.632;2023-10-31T04:00:29;7.38;;;4.57;;
36379;SDS011;22411;53.016;18.632;2023-10-31T04:02:55;8.68;;;5.07;;
36379;SDS011;22411;53.016;18.632;2023-10-31T04:05:21;6.75;;;4.45;;
36379;SDS011;22411;53.016;18.632;2023-10-31T04:07:48;7.90;;;4.80;;
36379;SDS011;22411;53.016;18.632;2023-10-31T04:10:15;8.13;;;5.22;;
36379;SDS011;22411;53.016;18.632;2023-10-31T04:12:41;10.05;;;5.30;;
36379;SDS011;22411;53.016;18.632;2023-10-31T04:15:07;9.90;;;5.68;;
36379;SDS011;22411;53.016;18.632;2023-10-31T04:17:34;11.48;;;5.07;;
36379;SDS011;22411;53.016;18.632;2023-10-31T04:19:59;9.98;;;5.53;;
36379;SDS011;22411;53.016;18.632;2023-10-31T04:22:25;8.38;;;4.63;;
36379;SDS011;22411;53.016;18.632;2023-10-31T04:24:51;12.85;;;4.68;;
36379;SDS011;22411;53.016;18.632;2023-10-31T04:27:17;11.32;;;5.88;;
36379;SDS011;22411;53.016;18.632;2023-10-31T04:29:43;9.82;;;4.88;;
36379;SDS011;22411;53.016;18.632;2023-10-31T04:32:09;10.95;;;5.25;;
36379;SDS011;22411;53.016;18.632;2023-10-31T04:34:35;7.22;;;4.70;;
36379;SDS011;22411;53.016;18.632;2023-10-31T04:37:01;7.97;;;4.75;;
36379;SDS011;22411;53.016;18.632;2023-10-31T04:39:26;5.55;;;4.75;;
36379;SDS011;22411;53.016;18.632;2023-10-31T04:41:52;10.20;;;5.25;;
36379;SDS011;22411;53.016;18.632;2023-10-31T04:44:18;8.70;;;4.97;;
36379;SDS011;22411;53.016;18.632;2023-10-31T04:46:43;11.40;;;4.97;;
36379;SDS011;22411;53.016;18.632;2023-10-31T04:49:09;10.20;;;5.40;;
36379;SDS011;22411;53.016;18.632;2023-10-31T04:51:35;13.20;;;5.47;;
36379;SDS011;22411;53.016;18.632;2023-10-31T04:54:02;10.27;;;6.10;;
36379;SDS011;22411;53.016;18.632;2023-10-31T04:56:28;8.85;;;5.30;;
36379;SDS011;22411;53.016;18.632;2023-10-31T04:58:54;10.20;;;5.40;;
36379;SDS011;22411;53.016;18.632;2023-10-31T05:01:19;8.00;;;5.30;;
36379;SDS011;22411;53.016;18.632;2023-10-31T05:03:45;11.60;;;6.85;;
36379;SDS011;22411;53.016;18.632;2023-10-31T05:06:11;8.40;;;5.18;;
36379;SDS011;22411;53.016;18.632;2023-10-31T05:08:37;10.77;;;6.65;;
36379;SDS011;22411;53.016;18.632;2023-10-31T05:11:02;11.70;;;5.60;;
36379;SDS011;22411;53.016;18.632;2023-10-31T05:13:28;9.48;;;6.88;;
36379;SDS011;22411;53.016;18.632;2023-10-31T05:15:54;11.57;;;5.97;;
36379;SDS011;22411;53.016;18.632;2023-10-31T05:18:20;10.52;;;6.38;;
36379;SDS011;22411;53.016;18.632;2023-10-31T05:20:46;10.35;;;6.72;;
36379;SDS011;22411;53.016;18.632;2023-10-31T05:23:13;10.43;;;6.28;;
36379;SDS011;22411;53.016;18.632;2023-10-31T05:25:39;8.80;;;6.03;;
36379;SDS011;22411;53.016;18.632;2023-10-31T05:28:05;11.85;;;5.60;;
36379;SDS011;22411;53.016;18.632;2023-10-31T05:30:30;8.23;;;6.05;;
36379;SDS011;22411;53.016;18.632;2023-10-31T05:32:57;9.60;;;5.85;;
36379;SDS011;22411;53.016;18.632;2023-10-31T05:35:22;12.95;;;6.18;;
36379;SDS011;22411;53.016;18.632;2023-10-31T05:37:48;8.88;;;5.50;;
36379;SDS011;22411;53.016;18.632;2023-10-31T05:40:14;10.73;;;4.93;;
36379;SDS011;22411;53.016;18.632;2023-10-31T05:42:40;7.88;;;5.00;;
36379;SDS011;22411;53.016;18.632;2023-10-31T05:45:06;9.77;;;4.35;;
36379;SDS011;22411;53.016;18.632;2023-10-31T05:47:32;7.22;;;4.20;;
36379;SDS011;22411;53.016;18.632;2023-10-31T05:50:00;6.47;;;4.30;;
36379;SDS011;22411;53.016;18.632;2023-10-31T05:52:29;7.05;;;4.05;;
36379;SDS011;22411;53.016;18.632;2023-10-31T05:54:55;7.00;;;3.75;;
36379;SDS011;22411;53.016;18.632;2023-10-31T05:57:22;5.57;;;3.83;;
36379;SDS011;22411;53.016;18.632;2023-10-31T05:59:47;7.45;;;3.95;;
36379;SDS011;22411;53.016;18.632;2023-10-31T06:02:13;5.65;;;3.70;;
36379;SDS011;22411;53.016;18.632;2023-10-31T06:04:39;8.15;;;3.58;;
36379;SDS011;22411;53.016;18.632;2023-10-31T06:07:05;6.60;;;4.05;;
36379;SDS011;22411;53.016;18.632;2023-10-31T06:09:31;6.45;;;3.47;;
36379;SDS011;22411;53.016;18.632;2023-10-31T06:11:59;6.50;;;2.53;;
36379;SDS011;22411;53.016;18.632;2023-10-31T06:14:25;5.47;;;2.80;;
36379;SDS011;22411;53.016;18.632;2023-10-31T06:16:51;6.90;;;2.88;;
36379;SDS011;22411;53.016;18.632;2023-10-31T06:19:17;7.25;;;3.10;;
36379;SDS011;22411;53.016;18.632;2023-10-31T06:21:43;7.75;;;3.65;;
36379;SDS011;22411;53.016;18.632;2023-10-31T06:24:09;8.05;;;4.35;;
36379;SDS011;22411;53.016;18.632;2023-10-31T06:26:35;5.13;;;2.20;;
36379;SDS011;22411;53.016;18.632;2023-10-31T06:29:01;6.15;;;2.33;;
36379;SDS011;22411;53.016;18.632;2023-10-31T06:31:27;9.65;;;5.97;;
36379;SDS011;22411;53.016;18.632;2023-10-31T06:33:52;7.80;;;3.85;;
36379;SDS011;22411;53.016;18.632;2023-10-31T06:36:18;6.70;;;3.67;;
36379;SDS011;22411;53.016;18.632;2023-10-31T06:38:44;5.28;;;2.03;;
36379;SDS011;22411;53.016;18.632;2023-10-31T06:41:10;8.32;;;4.00;;
36379;SDS011;22411;53.016;18.632;2023-10-31T06:43:35;6.82;;;4.50;;
36379;SDS011;22411;53.016;18.632;2023-10-31T06:46:01;9.82;;;7.35;;
36379;SDS011;22411;53.016;18.632;2023-10-31T06:48:29;8.52;;;7.32;;
36379;SDS011;22411;53.016;18.632;2023-10-31T06:50:55;5.03;;;2.67;;
36379;SDS011;22411;53.016;18.632;2023-10-31T06:53:20;4.57;;;1.92;;
36379;SDS011;22411;53.016;18.632;2023-10-31T06:55:46;4.72;;;2.92;;
36379;SDS011;22411;53.016;18.632;2023-10-31T06:58:12;4.57;;;1.75;;
36379;SDS011;22411;53.016;18.632;2023-10-31T07:00:38;4.32;;;2.30;;
36379;SDS011;22411;53.016;18.632;2023-10-31T07:03:04;6.32;;;2.35;;
36379;SDS011;22411;53.016;18.632;2023-10-31T07:05:34;5.55;;;2.92;;
36379;SDS011;22411;53.016;18.632;2023-10-31T07:08:01;7.93;;;3.33;;
36379;SDS011;22411;53.016;18.632;2023-10-31T07:10:29;7.55;;;2.40;;
36379;SDS011;22411;53.016;18.632;2023-10-31T07:12:55;5.82;;;2.88;;
36379;SDS011;22411;53.016;18.632;2023-10-31T07:15:21;6.78;;;2.65;;
36379;SDS011;22411;53.016;18.632;2023-10-31T07:17:47;4.90;;;2.50;;
36379;SDS011;22411;53.016;18.632;2023-10-31T07:20:13;5.60;;;3.15;;
36379;SDS011;22411;53.016;18.632;2023-10-31T07:22:38;5.47;;;3.22;;
36379;SDS011;22411;53.016;18.632;2023-10-31T07:25:05;6.55;;;5.38;;
36379;SDS011;22411;53.016;18.632;2023-10-31T07:27:32;6.30;;;4.28;;
36379;SDS011;22411;53.016;18.632;2023-10-31T07:29:58;6.03;;;3.63;;
36379;SDS011;22411;53.016;18.632;2023-10-31T07:32:23;4.65;;;2.47;;
36379;SDS011;22411;53.016;18.632;2023-10-31T07:34:49;8.90;;;4.03;;
36379;SDS011;22411;53.016;18.632;2023-10-31T07:37:15;4.65;;;2.47;;
36379;SDS011;22411;53.016;18.632;2023-10-31T07:39:41;5.00;;;3.75;;
36379;SDS011;22411;53.016;18.632;2023-10-31T07:42:07;6.93;;;4.53;;
36379;SDS011;22411;53.016;18.632;2023-10-31T07:44:34;7.43;;;2.92;;
36379;SDS011;22411;53.016;18.632;2023-10-31T07:46:59;5.25;;;3.38;;
36379;SDS011;22411;53.016;18.632;2023-10-31T07:49:25;5.50;;;3.05;;
36379;SDS011;22411;53.016;18.632;2023-10-31T07:51:51;5.53;;;3.33;;
36379;SDS011;22411;53.016;18.632;2023-10-31T07:54:17;7.40;;;2.67;;
36379;SDS011;22411;53.016;18.632;2023-10-31T07:56:43;4.78;;;2.97;;
36379;SDS011;22411;53.016;18.632;2023-10-31T07:59:09;5.10;;;2.40;;
36379;SDS011;22411;53.016;18.632;2023-10-31T08:01:34;5.50;;;2.15;;
36379;SDS011;22411;53.016;18.632;2023-10-31T08:04:01;4.85;;;3.13;;
36379;SDS011;22411;53.016;18.632;2023-10-31T08:06:26;5.75;;;2.47;;
36379;SDS011;22411;53.016;18.632;2023-10-31T08:08:52;6.13;;;3.13;;
36379;SDS011;22411;53.016;18.632;2023-10-31T08:11:18;4.75;;;2.20;;
36379;SDS011;22411;53.016;18.632;2023-10-31T08:13:44;7.18;;;2.45;;
36379;SDS011;22411;53.016;18.632;2023-10-31T08:16:10;7.53;;;3.03;;
36379;SDS011;22411;53.016;18.632;2023-10-31T08:18:36;9.85;;;4.10;;
36379;SDS011;22411;53.016;18.632;2023-10-31T08:21:02;5.93;;;2.40;;
36379;SDS011;22411;53.016;18.632;2023-10-31T08:23:28;5.40;;;2.25;;
36379;SDS011;22411;53.016;18.632;2023-10-31T08:25:55;8.63;;;2.67;;
36379;SDS011;22411;53.016;18.632;2023-10-31T08:28:20;6.68;;;2.75;;
36379;SDS011;22411;53.016;18.632;2023-10-31T08:30:46;5.00;;;2.33;;
36379;SDS011;22411;53.016;18.632;2023-10-31T08:33:12;11.70;;;2.22;;
36379;SDS011;22411;53.016;18.632;2023-10-31T08:35:39;5.55;;;2.22;;
36379;SDS011;22411;53.016;18.632;2023-10-31T08:38:05;9.23;;;3.08;;
36379;SDS011;22411;53.016;18.632;2023-10-31T08:40:30;7.55;;;2.85;;
36379;SDS011;22411;53.016;18.632;2023-10-31T08:42:56;5.20;;;2.53;;
36379;SDS011;22411;53.016;18.632;2023-10-31T08:45:22;5.05;;;2.30;;
36379;SDS011;22411;53.016;18.632;2023-10-31T08:47:48;9.50;;;3.20;;
36379;SDS011;22411;53.016;18.632;2023-10-31T08:50:13;6.18;;;2.72;;
36379;SDS011;22411;53.016;18.632;2023-10-31T08:52:39;7.97;;;2.90;;
36379;SDS011;22411;53.016;18.632;2023-10-31T08:55:07;10.80;;;5.53;;
36379;SDS011;22411;53.016;18.632;2023-10-31T08:57:43;5.55;;;3.03;;
36379;SDS011;22411;53.016;18.632;2023-10-31T09:00:13;9.52;;;3.20;;
36379;SDS011;22411;53.016;18.632;2023-10-31T09:02:39;14.63;;;7.38;;
36379;SDS011;22411;53.016;18.632;2023-10-31T09:05:08;8.15;;;3.85;;
36379;SDS011;22411;53.016;18.632;2023-10-31T09:07:34;9.82;;;4.85;;
36379;SDS011;22411;53.016;18.632;2023-10-31T09:10:08;8.05;;;4.35;;
36379;SDS011;22411;53.016;18.632;2023-10-31T09:12:49;9.77;;;5.05;;
36379;SDS011;22411;53.016;18.632;2023-10-31T09:15:16;11.88;;;6.20;;
36379;SDS011;22411;53.016;18.632;2023-10-31T09:17:47;8.55;;;5.35;;
36379;SDS011;22411;53.016;18.632;2023-10-31T09:20:13;7.40;;;4.68;;
36379;SDS011;22411;53.016;18.632;2023-10-31T09:22:39;8.02;;;5.63;;
36379;SDS011;22411;53.016;18.632;2023-10-31T09:25:06;8.23;;;5.47;;
36379;SDS011;22411;53.016;18.632;2023-10-31T09:27:33;8.70;;;5.53;;
36379;SDS011;22411;53.016;18.632;2023-10-31T09:30:02;11.23;;;5.72;;
36379;SDS011;22411;53.016;18.632;2023-10-31T09:32:28;10.68;;;5.38;;
36379;SDS011;22411;53.016;18.632;2023-10-31T09:34:54;7.03;;;5.50;;
36379;SDS011;22411;53.016;18.632;2023-10-31T09:37:19;7.93;;;6.00;;
36379;SDS011;22411;53.016;18.632;2023-10-31T09:39:46;7.22;;;5.20;;
36379;SDS011;22411;53.016;18.632;2023-10-31T09:42:11;9.95;;;6.15;;
36379;SDS011;22411;53.016;18.632;2023-10-31T09:44:40;9.02;;;6.85;;
36379;SDS011;22411;53.016;18.632;2023-10-31T09:47:09;8.98;;;7.03;;
36379;SDS011;22411;53.016;18.632;2023-10-31T09:49:36;9.77;;;7.10;;
36379;SDS011;22411;53.016;18.632;2023-10-31T09:52:01;9.13;;;6.70;;
36379;SDS011;22411;53.016;18.632;2023-10-31T09:54:32;9.30;;;6.75;;
36379;SDS011;22411;53.016;18.632;2023-10-31T09:57:00;11.57;;;8.23;;
36379;SDS011;22411;53.016;18.632;2023-10-31T09:59:27;15.23;;;8.75;;
36379;SDS011;22411;53.016;18.632;2023-10-31T10:01:53;11.57;;;8.32;;
36379;SDS011;22411;53.016;18.632;2023-10-31T10:04:19;8.95;;;6.90;;
36379;SDS011;22411;53.016;18.632;2023-10-31T10:06:52;10.35;;;7.50;;
36379;SDS011;22411;53.016;18.632;2023-10-31T10:09:25;7.80;;;6.65;;
36379;SDS011;22411;53.016;18.632;2023-10-31T10:11:51;8.80;;;6.70;;
36379;SDS011;22411;53.016;18.632;2023-10-31T10:14:18;8.27;;;6.80;;
36379;SDS011;22411;53.016;18.632;2023-10-31T10:16:43;9.20;;;5.95;;
36379;SDS011;22411;53.016;18.632;2023-10-31T10:19:19;8.52;;;6.57;;
36379;SDS011;22411;53.016;18.632;2023-10-31T10:21:47;6.57;;;5.78;;
36379;SDS011;22411;53.016;18.632;2023-10-31T10:24:21;7.30;;;5.82;;
36379;SDS011;22411;53.016;18.632;2023-10-31T10:26:49;6.32;;;5.65;;
36379;SDS011;22411;53.016;18.632;2023-10-31T10:29:15;9.65;;;7.88;;
36379;SDS011;22411;53.016;18.632;2023-10-31T10:31:41;7.35;;;5.70;;
36379;SDS011;22411;53.016;18.632;2023-10-31T10:34:08;7.07;;;6.00;;
36379;SDS011;22411;53.016;18.632;2023-10-31T10:36:34;5.93;;;4.97;;
36379;SDS011;22411;53.016;18.632;2023-10-31T10:39:00;12.65;;;11.40;;
36379;SDS011;22411;53.016;18.632;2023-10-31T10:41:26;15.15;;;13.45;;
36379;SDS011;22411;53.016;18.632;2023-10-31T10:44:04;11.00;;;10.05;;
36379;SDS011;22411;53.016;18.632;2023-10-31T10:46:32;4.70;;;4.03;;
36379;SDS011;22411;53.016;18.632;2023-10-31T10:48:59;5.60;;;4.13;;
36379;SDS011;22411;53.016;18.632;2023-10-31T10:51:35;5.20;;;4.50;;
36379;SDS011;22411;53.016;18.632;2023-10-31T10:54:19;4.13;;;3.72;;
36379;SDS011;22411;53.016;18.632;2023-10-31T10:56:59;8.38;;;5.70;;
36379;SDS011;22411;53.016;18.632;2023-10-31T10:59:39;6.38;;;5.88;;
36379;SDS011;22411;53.016;18.632;2023-10-31T11:02:07;6.05;;;5.53;;
36379;SDS011;22411;53.016;18.632;2023-10-31T11:04:33;5.65;;;4.57;;
36379;SDS011;22411;53.016;18.632;2023-10-31T11:07:00;5.38;;;4.88;;
36379;SDS011;22411;53.016;18.632;2023-10-31T11:09:28;6.68;;;5.10;;
36379;SDS011;22411;53.016;18.632;2023-10-31T11:11:56;6.40;;;4.47;;
36379;SDS011;22411;53.016;18.632;2023-10-31T11:14:23;5.47;;;4.97;;
36379;SDS011;22411;53.016;18.632;2023-10-31T11:16:54;5.32;;;4.63;;
36379;SDS011;22411;53.016;18.632;2023-10-31T11:19:22;5.55;;;5.05;;
36379;SDS011;22411;53.016;18.632;2023-10-31T11:21:57;5.10;;;4.60;;
36379;SDS011;22411;53.016;18.632;2023-10-31T11:24:28;4.50;;;4.10;;
36379;SDS011;22411;53.016;18.632;2023-10-31T11:27:01;4.20;;;3.58;;
36379;SDS011;22411;53.016;18.632;2023-10-31T11:29:30;3.97;;;3.35;;
36379;SDS011;22411;53.016;18.632;2023-10-31T11:31:56;3.85;;;3.17;;
36379;SDS011;22411;53.016;18.632;2023-10-31T11:34:22;5.18;;;4.07;;
36379;SDS011;22411;53.016;18.632;2023-10-31T11:36:51;4.80;;;3.38;;
36379;SDS011;22411;53.016;18.632;2023-10-31T11:39:18;4.63;;;2.90;;
36379;SDS011;22411;53.016;18.632;2023-10-31T11:41:54;3.63;;;3.33;;
36379;SDS011;22411;53.016;18.632;2023-10-31T11:44:27;6.00;;;4.18;;
36379;SDS011;22411;53.016;18.632;2023-10-31T11:46:53;3.65;;;3.00;;
36379;SDS011;22411;53.016;18.632;2023-10-31T11:49:52;5.65;;;4.63;;
36379;SDS011;22411;53.016;18.632;2023-10-31T11:52:15;3.25;;;2.95;;
36379;SDS011;22411;53.016;18.632;2023-10-31T11:54:42;3.95;;;2.50;;
36379;SDS011;22411;53.016;18.632;2023-10-31T11:57:08;5.25;;;3.40;;
36379;SDS011;22411;53.016;18.632;2023-10-31T11:59:37;4.07;;;3.03;;
36379;SDS011;22411;53.016;18.632;2023-10-31T12:02:13;5.75;;;2.90;;
36379;SDS011;22411;53.016;18.632;2023-10-31T12:04:40;2.50;;;2.00;;
36379;SDS011;22411;53.016;18.632;2023-10-31T12:07:05;2.13;;;1.88;;
36379;SDS011;22411;53.016;18.632;2023-10-31T12:09:31;3.03;;;2.00;;
36379;SDS011;22411;53.016;18.632;2023-10-31T12:11:57;1.80;;;1.48;;
36379;SDS011;22411;53.016;18.632;2023-10-31T12:14:23;4.30;;;2.92;;
36379;SDS011;22411;53.016;18.632;2023-10-31T12:16:48;2.20;;;1.00;;
36379;SDS011;22411;53.016;18.632;2023-10-31T12:19:14;1.77;;;1.00;;
36379;SDS011;22411;53.016;18.632;2023-10-31T12:21:41;2.20;;;1.48;;
36379;SDS011;22411;53.016;18.632;2023-10-31T12:24:16;3.40;;;1.38;;
36379;SDS011;22411;53.016;18.632;2023-10-31T12:26:43;2.33;;;1.35;;
36379;SDS011;22411;53.016;18.632;2023-10-31T12:29:13;1.75;;;1.02;;
36379;SDS011;22411;53.016;18.632;2023-10-31T12:31:42;2.83;;;1.48;;
36379;SDS011;22411;53.016;18.632;2023-10-31T12:34:11;1.40;;;0.75;;
36379;SDS011;22411;53.016;18.632;2023-10-31T12:36:37;1.67;;;0.82;;
36379;SDS011;22411;53.016;18.632;2023-10-31T12:39:04;1.77;;;1.10;;
36379;SDS011;22411;53.016;18.632;2023-10-31T12:41:32;1.60;;;1.20;;
36379;SDS011;22411;53.016;18.632;2023-10-31T12:43:58;1.75;;;1.27;;
36379;SDS011;22411;53.016;18.632;2023-10-31T12:46:26;2.88;;;1.70;;
36379;SDS011;22411;53.016;18.632;2023-10-31T12:48:56;2.17;;;1.10;;
36379;SDS011;22411;53.016;18.632;2023-10-31T12:51:22;2.80;;;1.30;;
36379;SDS011;22411;53.016;18.632;2023-10-31T12:53:48;3.17;;;2.08;;
36379;SDS011;22411;53.016;18.632;2023-10-31T12:59:07;2.63;;;1.20;;
36379;SDS011;22411;53.016;18.632;2023-10-31T13:01:42;2.13;;;1.20;;
36379;SDS011;22411;53.016;18.632;2023-10-31T13:04:08;1.60;;;0.75;;
36379;SDS011;22411;53.016;18.632;2023-10-31T13:06:35;1.88;;;1.48;;
36379;SDS011;22411;53.016;18.632;2023-10-31T13:09:01;1.90;;;1.00;;
36379;SDS011;22411;53.016;18.632;2023-10-31T13:11:30;1.98;;;1.00;;
36379;SDS011;22411;53.016;18.632;2023-10-31T13:13:56;2.00;;;0.85;;
36379;SDS011;22411;53.016;18.632;2023-10-31T13:16:23;3.55;;;0.93;;
36379;SDS011;22411;53.016;18.632;2023-10-31T13:18:53;1.55;;;1.00;;
36379;SDS011;22411;53.016;18.632;2023-10-31T13:21:22;1.40;;;0.80;;
36379;SDS011;22411;53.016;18.632;2023-10-31T13:23:48;2.00;;;0.77;;
36379;SDS011;22411;53.016;18.632;2023-10-31T13:26:14;1.25;;;0.70;;
36379;SDS011;22411;53.016;18.632;2023-10-31T13:28:40;0.95;;;0.50;;
36379;SDS011;22411;53.016;18.632;2023-10-31T13:31:06;1.20;;;0.60;;
36379;SDS011;22411;53.016;18.632;2023-10-31T13:33:32;2.40;;;0.80;;
36379;SDS011;22411;53.016;18.632;2023-10-31T13:35:58;2.20;;;0.70;;
36379;SDS011;22411;53.016;18.632;2023-10-31T13:38:24;1.58;;;0.55;;
36379;SDS011;22411;53.016;18.632;2023-10-31T13:40:50;3.50;;;1.05;;
36379;SDS011;22411;53.016;18.632;2023-10-31T13:43:16;1.67;;;1.13;;
36379;SDS011;22411;53.016;18.632;2023-10-31T13:45:41;2.30;;;0.80;;
36379;SDS011;22411;53.016;18.632;2023-10-31T13:48:07;2.97;;;0.88;;
36379;SDS011;22411;53.016;18.632;2023-10-31T13:50:33;5.53;;;1.73;;
36379;SDS011;22411;53.016;18.632;2023-10-31T13:52:59;2.20;;;0.77;;
36379;SDS011;22411;53.016;18.632;2023-10-31T13:55:24;1.65;;;0.38;;
36379;SDS011;22411;53.016;18.632;2023-10-31T13:57:51;1.17;;;0.40;;
36379;SDS011;22411;53.016;18.632;2023-10-31T14:00:16;0.93;;;0.38;;
36379;SDS011;22411;53.016;18.632;2023-10-31T14:02:42;0.80;;;0.25;;
36379;SDS011;22411;53.016;18.632;2023-10-31T14:05:08;0.93;;;0.30;;
36379;SDS011;22411;53.016;18.632;2023-10-31T14:07:34;1.95;;;0.30;;
36379;SDS011;22411;53.016;18.632;2023-10-31T14:10:00;1.05;;;0.20;;
36379;SDS011;22411;53.016;18.632;2023-10-31T14:12:26;0.30;;;0.20;;
36379;SDS011;22411;53.016;18.632;2023-10-31T14:14:53;2.15;;;0.40;;
36379;SDS011;22411;53.016;18.632;2023-10-31T14:17:19;0.45;;;0.30;;
36379;SDS011;22411;53.016;18.632;2023-10-31T14:19:47;1.02;;;0.40;;
36379;SDS011;22411;53.016;18.632;2023-10-31T14:22:13;1.65;;;0.22;;
36379;SDS011;22411;53.016;18.632;2023-10-31T14:24:39;0.80;;;0.30;;
36379;SDS011;22411;53.016;18.632;2023-10-31T14:27:05;1.00;;;0.32;;
36379;SDS011;22411;53.016;18.632;2023-10-31T14:29:31;1.23;;;0.30;;